createdAt,value
2023-03-30T00:01:32.109Z,22.15
2023-03-30T00:03:58.654Z,19.92
2023-03-30T00:06:25.213Z,17.73
2023-03-30T00:08:52.607Z,15.77
2023-03-30T00:11:19.151Z,16.25
2023-03-30T00:13:45.549Z,16.08
2023-03-30T00:16:13.170Z,19.30
2023-03-30T00:18:39.836Z,17.55
2023-03-30T00:21:07.150Z,17.58
2023-03-30T00:23:33.695Z,17.48
2023-03-30T00:26:00.215Z,17.58
2023-03-30T00:28:26.630Z,16.60
2023-03-30T00:30:53.208Z,16.27
2023-03-30T00:33:27.572Z,20.20
2023-03-30T00:36:00.304Z,17.35
2023-03-30T00:38:26.916Z,15.23
2023-03-30T00:40:54.718Z,16.48
2023-03-30T00:43:21.275Z,17.98
2023-03-30T00:45:47.830Z,18.45
2023-03-30T00:48:34.782Z,20.88
2023-03-30T00:51:06.281Z,16.50
2023-03-30T00:53:34.573Z,17.55
2023-03-30T00:56:01.116Z,18.98
2023-03-30T00:58:27.658Z,16.92
2023-03-30T01:00:54.084Z,16.90
2023-03-30T01:03:34.507Z,20.08
2023-03-30T01:06:02.699Z,18.15
2023-03-30T01:08:29.157Z,18.13
2023-03-30T01:10:55.557Z,18.02
2023-03-30T01:13:21.983Z,16.23
2023-03-30T01:16:12.272Z,17.65
2023-03-30T01:19:11.982Z,16.85
2023-03-30T01:21:51.402Z,15.77
2023-03-30T01:24:59.736Z,16.80
2023-03-30T01:27:44.561Z,15.43
2023-03-30T01:30:32.849Z,18.23
2023-03-30T01:33:17.906Z,14.82
2023-03-30T01:35:57.814Z,16.42
2023-03-30T01:39:01.481Z,15.98
2023-03-30T01:41:30.628Z,17.30
2023-03-30T01:44:11.853Z,17.25
2023-03-30T01:46:41.352Z,16.30
2023-03-30T01:49:13.169Z,15.48
2023-03-30T01:51:42.720Z,17.70
2023-03-30T01:54:26.270Z,17.30
2023-03-30T01:56:59.490Z,15.75
2023-03-30T01:59:31.354Z,15.65
2023-03-30T02:01:58.484Z,16.27
2023-03-30T02:04:24.928Z,18.63
2023-03-30T02:06:57.600Z,18.33
2023-03-30T02:09:24.215Z,19.80
2023-03-30T02:11:51.240Z,15.50
2023-03-30T02:14:17.670Z,14.82
2023-03-30T02:16:48.795Z,15.88
2023-03-30T02:19:15.349Z,15.38
2023-03-30T02:21:42.147Z,14.52
2023-03-30T02:24:12.463Z,19.23
2023-03-30T02:26:38.879Z,18.98
2023-03-30T02:29:05.284Z,15.75
2023-03-30T02:31:31.731Z,19.20
2023-03-30T02:34:16.687Z,17.40
2023-03-30T02:37:01.331Z,17.80
2023-03-30T02:40:00.357Z,14.95
2023-03-30T02:42:45.669Z,18.35
2023-03-30T02:45:30.425Z,18.38
2023-03-30T02:47:59.713Z,19.00
2023-03-30T02:50:44.354Z,18.10
2023-03-30T02:53:19.758Z,20.08
2023-03-30T02:56:02.378Z,17.38
2023-03-30T02:58:31.958Z,13.82
2023-03-30T03:01:04.286Z,17.77
2023-03-30T03:03:36.604Z,13.82
2023-03-30T03:06:03.289Z,17.80
2023-03-30T03:08:34.619Z,17.55
2023-03-30T03:11:01.171Z,18.70
2023-03-30T03:13:27.697Z,17.73
2023-03-30T03:15:54.165Z,16.20
2023-03-30T03:18:20.590Z,16.00
2023-03-30T03:20:47.184Z,16.23
2023-03-30T03:23:13.607Z,16.38
2023-03-30T03:25:40.003Z,16.63
2023-03-30T03:28:06.449Z,16.38
2023-03-30T03:30:32.889Z,16.42
2023-03-30T03:32:59.479Z,18.08
2023-03-30T03:35:25.880Z,19.08
2023-03-30T03:37:52.319Z,15.80
2023-03-30T03:40:18.737Z,17.08
2023-03-30T03:42:45.173Z,18.42
2023-03-30T03:45:11.677Z,16.17
2023-03-30T03:47:38.187Z,17.50
2023-03-30T03:50:04.966Z,15.65
2023-03-30T03:52:31.376Z,18.45
2023-03-30T03:54:57.825Z,19.83
2023-03-30T03:57:24.271Z,15.88
2023-03-30T03:59:50.824Z,17.38
2023-03-30T04:02:17.302Z,16.42
2023-03-30T04:04:43.842Z,17.15
2023-03-30T04:07:10.283Z,17.55
2023-03-30T04:09:36.732Z,16.63
2023-03-30T04:12:03.744Z,21.80
2023-03-30T04:14:30.149Z,15.77
2023-03-30T04:16:56.537Z,16.30
2023-03-30T04:19:23.008Z,14.80
2023-03-30T04:21:49.427Z,14.02
2023-03-30T04:24:15.886Z,16.42
2023-03-30T04:26:42.295Z,18.65
2023-03-30T04:29:08.767Z,15.13
2023-03-30T04:31:35.219Z,15.77
2023-03-30T04:34:01.793Z,13.90
2023-03-30T04:36:28.945Z,16.08
2023-03-30T04:38:55.344Z,16.77
2023-03-30T04:41:21.743Z,18.25
2023-03-30T04:43:48.203Z,15.57
2023-03-30T04:46:14.654Z,16.15
2023-03-30T04:48:41.232Z,16.77
2023-03-30T04:51:07.662Z,14.38
2023-03-30T04:53:34.063Z,15.50
2023-03-30T04:56:00.472Z,14.98
2023-03-30T04:58:26.917Z,13.23
2023-03-30T05:00:53.376Z,11.60
2023-03-30T05:03:22.498Z,13.55
2023-03-30T05:05:49.887Z,12.98
2023-03-30T05:08:16.428Z,12.30
2023-03-30T05:10:42.864Z,13.38
2023-03-30T05:13:09.272Z,16.20
2023-03-30T05:15:35.712Z,11.63
2023-03-30T05:18:02.254Z,12.73
2023-03-30T05:20:28.741Z,14.63
2023-03-30T05:22:55.154Z,13.32
2023-03-30T05:25:21.560Z,14.40
2023-03-30T05:27:47.982Z,11.02
2023-03-30T05:30:14.620Z,9.70
2023-03-30T05:32:41.126Z,11.48
2023-03-30T05:35:07.674Z,12.00
2023-03-30T05:37:34.192Z,10.27
2023-03-30T05:40:00.637Z,8.30
2023-03-30T05:42:27.078Z,7.65
2023-03-30T05:44:53.512Z,8.18
2023-03-30T05:47:20.001Z,7.53
2023-03-30T05:49:46.398Z,9.07
2023-03-30T05:52:12.824Z,8.65
2023-03-30T05:54:39.290Z,7.30
2023-03-30T05:57:05.709Z,9.40
2023-03-30T05:59:32.145Z,8.30
2023-03-30T06:01:58.609Z,8.40
2023-03-30T06:04:25.162Z,12.15
2023-03-30T06:06:51.718Z,9.00
2023-03-30T06:09:18.160Z,8.88
2023-03-30T06:11:44.585Z,14.68
2023-03-30T06:14:11.021Z,7.72
2023-03-30T06:16:37.493Z,8.98
2023-03-30T06:19:03.930Z,9.00
2023-03-30T06:21:30.337Z,9.73
2023-03-30T06:23:56.788Z,12.20
2023-03-30T06:26:23.289Z,8.27
2023-03-30T06:28:49.733Z,9.02
2023-03-30T06:31:16.266Z,8.18
2023-03-30T06:33:43.122Z,9.43
2023-03-30T06:36:11.106Z,12.38
2023-03-30T06:38:37.651Z,10.93
2023-03-30T06:41:05.256Z,10.10
2023-03-30T06:43:31.865Z,10.15
2023-03-30T06:45:58.410Z,9.27
2023-03-30T06:48:25.062Z,10.73
2023-03-30T06:50:51.869Z,10.90
2023-03-30T06:53:18.378Z,9.48
2023-03-30T06:55:44.767Z,10.02
2023-03-30T06:58:11.188Z,8.13
2023-03-30T07:00:37.678Z,10.15
2023-03-30T07:03:04.304Z,6.32
2023-03-30T07:05:30.774Z,10.73
2023-03-30T07:07:57.208Z,8.07
2023-03-30T07:10:23.678Z,9.00
2023-03-30T07:12:50.172Z,7.80
2023-03-30T07:15:16.584Z,6.88
2023-03-30T07:17:43.037Z,10.98
2023-03-30T07:20:10.066Z,6.28
2023-03-30T07:22:36.668Z,7.35
2023-03-30T07:25:04.125Z,9.65
2023-03-30T07:27:30.581Z,6.80
2023-03-30T07:30:04.620Z,7.93
2023-03-30T07:32:37.207Z,7.55
2023-03-30T07:35:03.760Z,6.18
2023-03-30T07:37:30.244Z,7.50
2023-03-30T07:39:56.722Z,8.15
2023-03-30T07:42:23.536Z,4.55
2023-03-30T07:44:50.080Z,8.00
2023-03-30T07:47:16.657Z,6.43
2023-03-30T07:49:43.092Z,7.30
2023-03-30T07:52:09.525Z,6.10
2023-03-30T07:54:36.019Z,9.25
2023-03-30T07:57:02.464Z,6.45
2023-03-30T07:59:28.890Z,6.15
2023-03-30T08:01:55.350Z,6.30
2023-03-30T08:04:22.896Z,8.70
2023-03-30T08:06:51.278Z,6.28
2023-03-30T08:09:17.697Z,6.53
2023-03-30T08:11:44.653Z,4.88
2023-03-30T08:14:11.091Z,6.45
2023-03-30T08:16:37.849Z,6.72
2023-03-30T08:19:04.442Z,7.78
2023-03-30T08:21:30.883Z,4.90
2023-03-30T08:23:57.352Z,6.95
2023-03-30T08:26:23.898Z,6.22
2023-03-30T08:28:50.340Z,7.70
2023-03-30T08:31:16.824Z,7.82
2023-03-30T08:33:43.399Z,4.88
2023-03-30T08:36:09.873Z,7.57
2023-03-30T08:38:36.317Z,6.30
2023-03-30T08:41:33.202Z,6.03
2023-03-30T08:44:17.501Z,5.85
2023-03-30T08:46:43.933Z,7.40
2023-03-30T08:49:16.926Z,4.97
2023-03-30T08:51:43.364Z,6.25
2023-03-30T08:54:18.225Z,7.00
2023-03-30T08:56:59.856Z,7.38
2023-03-30T08:59:41.386Z,4.38
2023-03-30T09:02:15.302Z,6.50
2023-03-30T09:04:50.747Z,6.07
2023-03-30T09:07:45.230Z,6.22
2023-03-30T09:10:12.625Z,8.07
2023-03-30T09:12:44.013Z,7.50
2023-03-30T09:15:19.726Z,6.72
2023-03-30T09:17:55.135Z,7.28
2023-03-30T09:22:51.984Z,6.90
2023-03-30T09:25:49.390Z,6.70
2023-03-30T09:28:20.219Z,6.38
2023-03-30T09:30:50.145Z,6.00
2023-03-30T09:33:34.283Z,4.18
2023-03-30T09:36:23.936Z,4.82
2023-03-30T09:38:50.393Z,8.10
2023-03-30T09:41:53.471Z,6.00
2023-03-30T09:44:36.531Z,6.88
2023-03-30T09:47:18.909Z,5.35
2023-03-30T09:49:45.345Z,5.20
2023-03-30T09:52:22.417Z,4.82
2023-03-30T09:54:48.843Z,5.45
2023-03-30T09:57:25.672Z,7.68
2023-03-30T09:59:52.145Z,7.30
2023-03-30T10:02:20.169Z,7.43
2023-03-30T10:04:52.798Z,6.45
2023-03-30T10:07:34.355Z,5.28
2023-03-30T10:10:11.729Z,3.75
2023-03-30T10:12:38.172Z,3.50
2023-03-30T10:15:05.008Z,3.92
2023-03-30T10:17:31.425Z,3.88
2023-03-30T10:20:20.982Z,6.38
2023-03-30T10:22:55.180Z,3.22
2023-03-30T10:25:32.182Z,3.42
2023-03-30T10:28:01.587Z,4.18
2023-03-30T10:30:28.016Z,2.63
2023-03-30T10:32:59.073Z,4.07
2023-03-30T10:35:27.346Z,4.97
2023-03-30T10:37:54.881Z,4.00
2023-03-30T10:40:31.762Z,4.43
2023-03-30T10:42:58.163Z,3.35
2023-03-30T10:45:52.039Z,5.60
2023-03-30T10:48:39.909Z,6.82
2023-03-30T10:51:46.671Z,3.40
2023-03-30T10:54:31.309Z,5.07
2023-03-30T10:57:19.989Z,2.47
2023-03-30T11:00:09.701Z,5.55
2023-03-30T11:02:39.107Z,4.20
2023-03-30T11:05:12.927Z,5.40
2023-03-30T11:07:39.322Z,4.80
2023-03-30T11:10:29.980Z,5.50
2023-03-30T11:13:02.215Z,3.60
2023-03-30T11:15:55.725Z,4.22
2023-03-30T11:18:39.474Z,1.88
2023-03-30T11:21:08.222Z,6.45
2023-03-30T11:23:56.593Z,3.80
2023-03-30T11:26:43.260Z,2.03
2023-03-30T11:29:31.671Z,2.75
2023-03-30T11:32:29.386Z,3.65
2023-03-30T11:35:33.296Z,3.03
2023-03-30T11:38:18.006Z,3.53
2023-03-30T11:40:46.656Z,5.95
2023-03-30T11:43:16.998Z,2.33
2023-03-30T11:46:08.112Z,2.42
2023-03-30T11:49:06.871Z,4.18
2023-03-30T11:52:02.733Z,4.05
2023-03-30T11:55:01.710Z,4.10
2023-03-30T11:57:37.294Z,2.33
2023-03-30T12:00:25.553Z,3.42
2023-03-30T12:03:07.314Z,6.07
2023-03-30T12:05:35.572Z,4.85
2023-03-30T12:08:39.779Z,2.30
2023-03-30T12:11:09.215Z,5.13
2023-03-30T12:13:48.446Z,2.42
2023-03-30T12:16:37.859Z,2.75
2023-03-30T12:19:20.334Z,4.18
2023-03-30T12:22:00.578Z,8.85
2023-03-30T12:24:39.546Z,5.78
2023-03-30T12:27:08.024Z,4.30
2023-03-30T12:32:27.841Z,2.97
2023-03-30T12:34:55.196Z,4.07
2023-03-30T12:37:32.534Z,5.88
2023-03-30T12:40:00.759Z,5.85
2023-03-30T12:42:28.581Z,6.18
2023-03-30T12:45:18.300Z,7.63
2023-03-30T12:47:59.931Z,6.07
2023-03-30T12:50:31.528Z,8.57
2023-03-30T12:53:22.872Z,6.80
2023-03-30T12:56:14.920Z,4.50
2023-03-30T12:58:44.181Z,4.95
2023-03-30T13:01:27.324Z,6.47
2023-03-30T13:04:00.859Z,5.22
2023-03-30T13:06:34.947Z,7.75
2023-03-30T13:09:19.553Z,3.80
2023-03-30T13:11:48.911Z,9.95
2023-03-30T13:14:34.562Z,6.78
2023-03-30T13:17:00.936Z,7.28
2023-03-30T13:19:33.200Z,8.27
2023-03-30T13:22:02.655Z,6.15
2023-03-30T13:24:36.329Z,8.77
2023-03-30T13:27:18.034Z,7.15
2023-03-30T13:29:53.600Z,3.30
2023-03-30T13:32:43.308Z,6.57
2023-03-30T13:35:36.041Z,4.47
2023-03-30T13:38:17.158Z,4.85
2023-03-30T13:43:39.184Z,9.23
2023-03-30T13:46:29.120Z,6.63
2023-03-30T13:49:17.617Z,4.68
2023-03-30T13:51:44.033Z,3.85
2023-03-30T13:54:23.663Z,3.08
2023-03-30T13:56:55.360Z,4.47
2023-03-30T13:59:22.808Z,3.88
2023-03-30T14:01:52.537Z,2.65
2023-03-30T14:04:18.983Z,2.88
2023-03-30T14:06:46.817Z,2.42
2023-03-30T14:09:14.685Z,2.58
2023-03-30T14:11:49.732Z,4.85
2023-03-30T14:14:22.303Z,3.83
2023-03-30T14:16:48.752Z,5.10
2023-03-30T14:19:26.253Z,3.45
2023-03-30T14:21:57.820Z,4.57
2023-03-30T14:24:32.560Z,2.97
2023-03-30T14:27:05.936Z,1.60
2023-03-30T14:29:32.448Z,4.25
2023-03-30T14:34:32.887Z,4.20
2023-03-30T14:37:00.744Z,3.58
2023-03-30T14:39:27.209Z,2.45
2023-03-30T14:41:53.689Z,3.15
2023-03-30T14:44:22.211Z,4.90
2023-03-30T14:46:50.008Z,2.75
2023-03-30T14:49:27.012Z,2.08
2023-03-30T14:52:00.489Z,2.88
2023-03-30T14:54:26.917Z,5.50
2023-03-30T14:56:56.544Z,4.63
2023-03-30T14:59:23.081Z,4.43
2023-03-30T15:01:49.708Z,4.47
2023-03-30T15:04:16.949Z,4.32
2023-03-30T15:06:43.551Z,2.83
2023-03-30T15:09:17.561Z,5.25
2023-03-30T15:11:45.413Z,5.38
2023-03-30T15:14:15.392Z,5.40
2023-03-30T15:16:41.882Z,5.53
2023-03-30T15:19:13.508Z,2.63
2023-03-30T15:21:39.972Z,3.45
2023-03-30T15:24:07.546Z,5.35
2023-03-30T15:26:34.021Z,2.83
2023-03-30T15:29:00.420Z,4.75
2023-03-30T15:31:28.035Z,2.03
2023-03-30T15:33:56.130Z,5.78
2023-03-30T15:36:25.969Z,7.45
2023-03-30T15:38:57.305Z,2.92
2023-03-30T15:41:42.493Z,5.45
2023-03-30T15:44:10.368Z,5.93
2023-03-30T15:46:36.867Z,3.55
2023-03-30T15:49:03.348Z,4.15
2023-03-30T15:51:36.579Z,3.38
2023-03-30T15:54:14.103Z,4.07
2023-03-30T15:56:41.463Z,6.80
2023-03-30T15:59:15.357Z,3.53
2023-03-30T16:02:02.979Z,7.03
2023-03-30T16:04:30.920Z,7.18
2023-03-30T16:06:57.478Z,3.25
2023-03-30T16:09:23.898Z,6.78
2023-03-30T16:11:51.394Z,7.28
2023-03-30T16:14:18.852Z,6.43
2023-03-30T16:16:45.269Z,7.63
2023-03-30T16:19:12.697Z,7.18
2023-03-30T16:21:39.199Z,6.00
2023-03-30T16:24:05.988Z,9.00
2023-03-30T16:26:32.494Z,6.03
2023-03-30T16:28:58.940Z,8.55
2023-03-30T16:31:25.425Z,5.93
2023-03-30T16:33:51.881Z,8.45
2023-03-30T16:36:19.904Z,5.40
2023-03-30T16:38:46.458Z,7.03
2023-03-30T16:41:15.979Z,5.38
2023-03-30T16:43:42.383Z,8.95
2023-03-30T16:46:11.892Z,13.82
2023-03-30T16:48:38.349Z,8.30
2023-03-30T16:51:04.967Z,7.07
2023-03-30T16:53:31.535Z,4.38
2023-03-30T16:55:57.938Z,6.47
2023-03-30T16:58:24.348Z,7.80
2023-03-30T17:00:52.226Z,10.32
2023-03-30T17:03:19.335Z,8.38
2023-03-30T17:05:46.308Z,6.47
2023-03-30T17:08:22.627Z,5.18
2023-03-30T17:10:49.465Z,5.47
2023-03-30T17:13:15.952Z,5.30
2023-03-30T17:15:42.408Z,8.13
2023-03-30T17:18:16.180Z,6.28
2023-03-30T17:20:46.743Z,9.18
2023-03-30T17:23:13.207Z,7.38
2023-03-30T17:25:39.816Z,6.00
2023-03-30T17:28:06.786Z,9.88
2023-03-30T17:30:34.739Z,8.20
2023-03-30T17:33:01.244Z,6.75
2023-03-30T17:35:27.741Z,8.07
2023-03-30T17:37:54.511Z,5.47
2023-03-30T17:40:25.765Z,7.75
2023-03-30T17:42:52.295Z,7.38
2023-03-30T17:45:20.116Z,7.15
2023-03-30T17:47:46.639Z,11.40
2023-03-30T17:50:23.253Z,8.38
2023-03-30T17:52:49.802Z,11.55
2023-03-30T17:55:16.797Z,4.30
2023-03-30T17:57:43.266Z,11.75
2023-03-30T18:00:21.462Z,6.40
2023-03-30T18:02:48.020Z,11.88
2023-03-30T18:05:15.026Z,5.40
2023-03-30T18:07:41.524Z,6.68
2023-03-30T18:10:21.974Z,5.38
2023-03-30T18:12:48.552Z,5.75
2023-03-30T18:15:15.253Z,9.18
2023-03-30T18:17:41.744Z,6.82
2023-03-30T18:20:19.403Z,7.43
2023-03-30T18:22:45.962Z,5.47
2023-03-30T18:25:21.952Z,7.18
2023-03-30T18:27:56.152Z,9.55
2023-03-30T18:30:27.912Z,7.28
2023-03-30T18:32:55.655Z,11.07
2023-03-30T18:35:23.604Z,12.38
2023-03-30T18:37:50.090Z,11.13
2023-03-30T18:40:17.805Z,6.93
2023-03-30T18:42:44.329Z,8.60
2023-03-30T18:45:14.019Z,11.77
2023-03-30T18:50:24.487Z,11.05
2023-03-30T18:52:50.906Z,11.43
2023-03-30T18:55:17.443Z,10.82
2023-03-30T18:57:43.973Z,9.75
2023-03-30T19:00:14.892Z,11.68
2023-03-30T19:02:41.469Z,10.80
2023-03-30T19:05:09.085Z,7.25
2023-03-30T19:07:35.578Z,9.82
2023-03-30T19:10:02.025Z,10.43
2023-03-30T19:12:28.436Z,7.97
2023-03-30T19:14:54.937Z,9.63
2023-03-30T19:17:21.384Z,11.68
2023-03-30T19:19:47.839Z,8.98
2023-03-30T19:22:14.351Z,8.68
2023-03-30T19:24:40.788Z,10.43
2023-03-30T19:27:07.290Z,10.18
2023-03-30T19:29:34.174Z,9.85
2023-03-30T19:32:00.607Z,7.55
2023-03-30T19:34:27.378Z,8.63
2023-03-30T19:36:53.876Z,8.82
2023-03-30T19:39:20.332Z,12.05
2023-03-30T19:41:46.829Z,8.82
2023-03-30T19:44:13.236Z,13.70
2023-03-30T19:46:39.713Z,6.22
2023-03-30T19:49:06.176Z,5.53
2023-03-30T19:51:33.072Z,7.95
2023-03-30T19:53:59.610Z,10.63
2023-03-30T19:56:26.128Z,9.40
2023-03-30T19:58:52.547Z,9.65
2023-03-30T20:01:19.034Z,12.07
2023-03-30T20:03:45.482Z,7.80
2023-03-30T20:06:12.112Z,7.97
2023-03-30T20:08:41.750Z,8.45
2023-03-30T20:11:08.739Z,10.27
2023-03-30T20:13:35.311Z,9.80
2023-03-30T20:16:01.993Z,7.95
2023-03-30T20:18:28.590Z,9.68
2023-03-30T20:20:55.134Z,12.52
2023-03-30T20:23:21.595Z,6.25
2023-03-30T20:25:48.245Z,11.07
2023-03-30T20:28:14.965Z,6.70
2023-03-30T20:30:41.368Z,7.18
2023-03-30T20:33:08.816Z,11.50
2023-03-30T20:35:36.067Z,14.68
2023-03-30T20:38:02.509Z,13.20
2023-03-30T20:40:28.961Z,9.68
2023-03-30T20:42:55.389Z,14.02
2023-03-30T20:45:21.843Z,13.88
2023-03-30T20:47:48.321Z,13.05
2023-03-30T20:50:14.751Z,13.18
2023-03-30T20:52:41.188Z,11.75
2023-03-30T20:55:07.987Z,9.35
2023-03-30T20:57:34.573Z,10.13
2023-03-30T21:00:01.055Z,13.63
2023-03-30T21:02:29.536Z,11.90
2023-03-30T21:04:56.779Z,17.58
2023-03-30T21:07:23.232Z,10.98
2023-03-30T21:09:52.198Z,9.75
2023-03-30T21:12:18.691Z,14.25
2023-03-30T21:14:45.232Z,11.23
2023-03-30T21:17:12.099Z,9.38
2023-03-30T21:19:38.632Z,15.95
2023-03-30T21:22:05.037Z,15.90
2023-03-30T21:24:31.499Z,17.48
2023-03-30T21:26:57.996Z,12.88
2023-03-30T21:29:24.584Z,13.30
2023-03-30T21:31:50.990Z,17.73
2023-03-30T21:34:17.444Z,14.40
2023-03-30T21:36:44.034Z,10.73
2023-03-30T21:39:12.155Z,11.85
2023-03-30T21:41:38.621Z,11.65
2023-03-30T21:44:05.183Z,14.40
2023-03-30T21:46:31.854Z,10.73
2023-03-30T21:48:58.402Z,11.95
2023-03-30T21:51:26.366Z,12.25
2023-03-30T21:53:53.017Z,13.23
2023-03-30T21:56:20.635Z,11.55
2023-03-30T21:58:47.104Z,11.70
2023-03-30T22:01:13.603Z,11.45
2023-03-30T22:03:41.199Z,10.50
2023-03-30T22:06:08.916Z,8.88
2023-03-30T22:08:35.482Z,16.40
2023-03-30T22:11:04.141Z,13.18
2023-03-30T22:13:30.693Z,17.33
2023-03-30T22:16:04.374Z,12.77
2023-03-30T22:18:33.028Z,16.95
2023-03-30T22:21:00.452Z,13.82
2023-03-30T22:23:26.902Z,15.18
2023-03-30T22:25:53.378Z,13.77
2023-03-30T22:28:19.858Z,17.02
2023-03-30T22:30:47.264Z,16.10
2023-03-30T22:33:13.690Z,13.75
2023-03-30T22:35:41.152Z,12.13
2023-03-30T22:38:07.693Z,19.85
2023-03-30T22:40:34.236Z,12.60
2023-03-30T22:43:00.628Z,14.57
2023-03-30T22:45:27.132Z,14.13
2023-03-30T22:47:53.675Z,19.63
2023-03-30T22:50:20.148Z,13.88
2023-03-30T22:52:46.612Z,14.65
2023-03-30T22:55:13.019Z,14.45
2023-03-30T22:57:39.444Z,17.92
2023-03-30T23:00:06.480Z,16.17
2023-03-30T23:02:32.943Z,9.57
2023-03-30T23:04:59.478Z,10.20
2023-03-30T23:07:25.903Z,11.70
2023-03-30T23:09:52.331Z,16.73
2023-03-30T23:12:18.798Z,13.00
2023-03-30T23:14:45.210Z,13.80
2023-03-30T23:17:11.684Z,11.10
2023-03-30T23:19:38.138Z,12.55
2023-03-30T23:22:04.655Z,7.00
2023-03-30T23:24:31.074Z,5.85
2023-03-30T23:26:57.521Z,11.32
2023-03-30T23:29:23.932Z,16.10
2023-03-30T23:31:51.628Z,7.10
2023-03-30T23:34:18.114Z,10.10
2023-03-30T23:36:44.547Z,11.88
2023-03-30T23:39:10.954Z,12.25
2023-03-30T23:41:37.379Z,16.80
2023-03-30T23:44:03.869Z,14.52
2023-03-30T23:46:30.309Z,14.10
2023-03-30T23:48:56.746Z,10.43
2023-03-30T23:51:23.141Z,9.40
2023-03-30T23:53:49.578Z,11.32
2023-03-30T23:56:16.023Z,8.82
2023-03-30T23:58:42.513Z,11.35
